Архив погоды в Завитае

Метеограмма Завитая
Вторник, 24 Апреля
Время местн. Темп Ветер Видим Явления Облачность нижн/средн/верх Атм. давл. Влжн Точка росы ВНГО R Сост. почвы Tg s
Напр Скр Прв ур.ст ур.м изм
15:00 +24.1° З 4 11 20 км - незначительная облачность 736 756 -2 11% -8.2° более 2.5 км - - - -
12:00 +20.9° З,Ю-З 6 11 20 км - переменная облачность 738 758 -1.1 14% -7.6° более 2.5 км - - - -
09:00 +14.9° Ю,Ю-З 3 - 20 км - переменная облачность 739 760 -0.3 25% -5° более 2.5 км 0 Влажная (без луж) +1° -
06:00 +7.4° Ю-З 4 - 20 км - облачно 739 761 -0.5 41% -5° более 2.5 км - - - -
03:00 +8.5° Ю-З 4 - 20 км - ясно 739 761 -0.8 39% -4.7° более 2.5 км - - - -
00:00 +11.8° Ю-З 5 - 20 км - переменная облачность 740 762 -0.3 29% -5.7° более 2.5 км - - - -
Понедельник, 23 Апреля
Время местн. Темп Ветер Видим Явления Облачность нижн/средн/верх Атм. давл. Влжн Точка росы ВНГО R Сост. почвы Tg s
Напр Скр Прв ур.ст ур.м изм
21:00 +16.1° Ю 3 - 20 км - переменная облачность 741 762 +0.1 15% -10.6° более 2.5 км 0 - - -
18:00 +20.7° Ю-З 4 - 20 км - переменная облачность 741 762 -1.9 12% -9.8° более 2.5 км - - - -
15:00 +20.3° Ю-З 4 - 20 км - ясно 743 763 -3 13% -9.1° более 2.5 км - - - -
12:00 +15.6° Ю 4 - 20 км - ясно 746 767 -1.9 16% -10.2° более 2.5 км - - - -
09:00 +10.7° Ю 3 - 20 км - переменная облачность 747 769 -0.8 24% -9.1° более 2.5 км 0 Влажная (без луж) -4° -
06:00 +1.9° Ю-З 1 - 20 км - незначительная облачность 748 771 -0.2 36% -11.6° более 2.5 км - - - -
03:00 -0.2° Ю,Ю-З 1 - 20 км - ясно 748 771 +0.2 43% -11.3° более 2.5 км - - - -
00:00 +1° Ю 1 - 20 км - ясно 748 771 -0.1 40% -11.1° более 2.5 км - - - -
Воскресенье, 22 Апреля
Время местн. Темп Ветер Видим Явления Облачность нижн/средн/верх Атм. давл. Влжн Точка росы ВНГО R Сост. почвы Tg s
Напр Скр Прв ур.ст ур.м изм
21:00 +3.3° Ю-З 1 - 20 км - ясно 748 771 +0.7 38% -9.8° более 2.5 км 0 - - -
18:00 +11.3° С 3 - 20 км - ясно 748 762 -0.5 17% -12.9° более 2.5 км - - - -
15:00 +11.3° С 5 10 20 км - ясно 748 770 -0.8 19% -11.5° более 2.5 км - - - -
12:00 +10.2° С 5 - 20 км - ясно 749 771 -0.6 21% -11.3° более 2.5 км - - - -
09:00 +5.8° С 3 - 20 км - ясно 749 772 +1.1 30% -10.5° более 2.5 км 0 Сырая (есть малые или большие лужи) -5° -
06:00 -0.2° З 1 - 20 км - ясно 748 771 +1.1 32% -14.9° более 2.5 км - - - -
03:00 +0.6° З 1 - 20 км - ясно 747 770 +0.5 30% -15° более 2.5 км - - - -
00:00 +2.2° З,С-З 1 - 20 км - ясно 747 769 +1.1 29% -14.1° более 2.5 км - - - -
Суббота, 21 Апреля
Время местн. Темп Ветер Видим Явления Облачность нижн/средн/верх Атм. давл. Влжн Точка росы ВНГО R Сост. почвы Tg s
Напр Скр Прв ур.ст ур.м изм
21:00 +4.6° З 2 - 20 км - ясно 746 768 +2.2 26% -13.3° более 2.5 км 0 - - -
18:00 +9.6° С,С-З 5 13 20 км - ясно 744 765 +0.7 18% -13.6° более 2.5 км - - - -
15:00 +10° С,С-З 6 15 20 км - ясно 743 765 +0.7 22% -10.8° более 2.5 км - - - -
12:00 +7.6° С 7 15 20 км - ясно 742 764 +1 26% -10.7° более 2.5 км - - - -